^^
Station Historical Data
Daily Summary for January 16, 2017 Units:  English    Metric   Both
« Previous Day
Next Day »
Daily Weekly Monthly Yearly Custom
  High: Low: Average:
Temperature: 41.0 °F 19.5 °F 29.4 °F
Dew Point: 27.1 °F 15.4 °F 21.6 °F
Humidity: 90% 49% 73%
Wind Speed: 5.0mph 0.0mph 0.5mph
Wind Gust: 10.0mph - -
Wind- - SSW
Pressure: 30.50 in 30.30 in -
Precipitation: 0.01 in    
Historical Graphs
 
 
Tabular Data for January 16, 2017
Time Temperature Dew Point Pressure Wind Wind Speed Wind Gust Humidity Rainfall Rate (Hourly) Conditions
00:00 27.5 °F 20.6 °F 30.43 in Calm   1.0 mph 75% 0.00 in RA
00:10 27.4 °F 20.5 °F 30.44 in Calm     75% 0.00 in CLR
00:20 27.2 °F 20.3 °F 30.44 in Calm     75% 0.00 in CLR
00:30 26.8 °F 20.0 °F 30.44 in Calm     75% 0.00 in CLR
00:40 25.9 °F 19.4 °F 30.44 in Calm     76% 0.00 in CLR
00:50 25.7 °F 19.5 °F 30.44 in Calm     77% 0.00 in CLR
01:00 25.7 °F 20.1 °F 30.45 in Calm     79% 0.00 in CLR
01:10 26.2 °F 20.3 °F 30.45 in Calm     78% 0.00 in CLR
01:20 26.2 °F 19.7 °F 30.46 in Calm     76% 0.00 in CLR
01:30 25.5 °F 19.6 °F 30.46 in Calm     78% 0.00 in CLR
01:40 25.0 °F 19.5 °F 30.46 in Calm     79% 0.00 in CLR
01:50 24.4 °F 18.8 °F 30.46 in Calm     79% 0.00 in CLR
02:00 23.8 °F 18.2 °F 30.47 in Calm     79% 0.00 in CLR
02:10 23.7 °F 18.7 °F 30.47 in Calm     81% 0.00 in CLR
02:20 23.8 °F 18.8 °F 30.47 in Calm     81% 0.00 in CLR
02:30 24.2 °F 18.6 °F 30.47 in Calm     79% 0.00 in CLR
02:40 23.7 °F 18.1 °F 30.47 in Calm     79% 0.00 in CLR
02:50 23.8 °F 18.2 °F 30.47 in Calm   1.0 mph 79% 0.00 in CLR
03:00 23.4 °F 18.1 °F 30.47 in Calm     80% 0.00 in CLR
03:10 23.5 °F 18.3 °F 30.47 in Calm     80% 0.00 in CLR
03:20 24.0 °F 18.1 °F 30.47 in Calm     78% 0.00 in CLR
03:30 23.8 °F 18.2 °F 30.47 in Calm     79% 0.00 in CLR
03:40 23.8 °F 18.2 °F 30.47 in Calm     79% 0.00 in CLR
03:50 24.0 °F 18.1 °F 30.47 in Calm     78% 0.00 in CLR
04:00 22.8 °F 16.6 °F 30.47 in Calm     77% 0.00 in CLR
04:10 21.9 °F 16.7 °F 30.47 in Calm     80% 0.00 in CLR
04:20 21.6 °F 16.4 °F 30.47 in Calm     80% 0.00 in CLR
04:30 20.6 °F 15.4 °F 30.46 in Calm     80% 0.00 in CLR
04:40 20.1 °F 15.8 °F 30.47 in Calm     83% 0.00 in CLR
04:50 20.2 °F 16.4 °F 30.47 in Calm     85% 0.00 in CLR
05:00 20.7 °F 17.1 °F 30.47 in Calm     86% 0.00 in CLR
05:10 21.6 °F 17.7 °F 30.46 in Calm     85% 0.00 in CLR
05:20 22.0 °F 18.2 °F 30.47 in Calm     85% 0.00 in CLR
05:30 21.5 °F 17.4 °F 30.46 in Calm     84% 0.00 in CLR
05:40 20.8 °F 16.7 °F 30.47 in Calm     84% 0.00 in CLR
05:50 20.4 °F 16.6 °F 30.47 in Calm     85% 0.00 in CLR
06:00 21.2 °F 18.2 °F 30.47 in Calm     88% 0.00 in CLR
06:10 21.9 °F 18.1 °F 30.47 in Calm     85% 0.00 in CLR
06:20 21.0 °F 16.9 °F 30.47 in Calm     84% 0.00 in CLR
06:30 20.5 °F 16.7 °F 30.47 in Calm     85% 0.00 in CLR
06:40 20.8 °F 17.3 °F 30.48 in Calm     86% 0.00 in CLR
06:50 20.4 °F 16.9 °F 30.48 in Calm     86% 0.00 in CLR
07:00 20.9 °F 17.6 °F 30.48 in Calm     87% 0.00 in CLR
07:10 20.5 °F 17.2 °F 30.48 in Calm     87% 0.00 in CLR
07:20 19.8 °F 16.3 °F 30.47 in Calm     86% 0.00 in CLR
07:30 19.5 °F 16.5 °F 30.48 in Calm     88% 0.00 in CLR
07:40 20.0 °F 17.3 °F 30.48 in Calm     89% 0.00 in CLR
07:50 20.2 °F 17.2 °F 30.48 in Calm     88% 0.00 in CLR
08:00 19.9 °F 16.9 °F 30.48 in Calm     88% 0.00 in CLR
08:10 20.2 °F 17.2 °F 30.48 in Calm     88% 0.00 in CLR
08:20 20.5 °F 17.8 °F 30.49 in Calm     89% 0.00 in CLR
08:30 21.6 °F 19.2 °F 30.49 in Calm     90% 0.00 in CLR
08:40 22.7 °F 19.7 °F 30.49 in Calm     88% 0.00 in CLR
08:50 23.7 °F 20.7 °F 30.49 in Calm     88% 0.00 in CLR
09:00 24.7 °F 21.3 °F 30.49 in Calm     87% 0.00 in CLR
09:10 25.3 °F 21.7 °F 30.49 in Calm     86% 0.00 in CLR
09:20 26.0 °F 21.8 °F 30.50 in Calm   1.0 mph 84% 0.00 in CLR
09:30 26.9 °F 22.1 °F 30.49 in Calm   1.0 mph 82% 0.00 in CLR
09:40 28.1 °F 22.7 °F 30.50 in Calm     80% 0.00 in CLR
09:50 29.2 °F 21.3 °F 30.50 in Calm   1.0 mph 72% 0.00 in CLR
10:00 29.9 °F 21.7 °F 30.50 in Calm   3.0 mph 71% 0.00 in CLR
10:10 30.2 °F 21.2 °F 30.49 in Calm   3.0 mph 69% 0.00 in CLR
10:20 31.2 °F 21.8 °F 30.50 in Calm   2.0 mph 68% 0.00 in CLR
10:30 32.1 °F 22.4 °F 30.49 in Calm   2.0 mph 67% 0.00 in CLR
10:40 32.5 °F 20.9 °F 30.49 in SSW 2.0 mph 5.0 mph 62% 0.00 in CLR
10:50 32.5 °F 20.9 °F 30.49 in WSW 2.0 mph 6.0 mph 62% 0.00 in CLR
12:40 36.4 °F 23.4 °F 30.42 in WSW 1.0 mph 4.0 mph 59% 0.00 in CLR
16:30 41.0 °F 23.3 °F 30.36 in Calm   4.0 mph 49% 0.00 in CLR
16:40 40.1 °F 22.9 °F 30.36 in SSE 1.0 mph 3.0 mph 50% 0.00 in CLR
16:50 39.3 °F 23.1 °F 30.36 in SSE 1.0 mph 3.0 mph 52% 0.00 in CLR
17:00 38.6 °F 23.3 °F 30.36 in Calm   4.0 mph 54% 0.00 in CLR
17:10 38.0 °F 23.7 °F 30.36 in Calm   3.0 mph 56% 0.00 in CLR
17:20 37.7 °F 23.8 °F 30.36 in Calm   4.0 mph 57% 0.00 in CLR
17:30 37.9 °F 24.4 °F 30.36 in SSW 1.0 mph 6.0 mph 58% 0.00 in CLR
17:40 37.9 °F 25.3 °F 30.36 in SSW 2.0 mph 7.0 mph 60% 0.00 in CLR
17:50 38.0 °F 25.3 °F 30.36 in SSW 1.0 mph 6.0 mph 60% 0.00 in CLR
18:00 38.1 °F 25.8 °F 30.36 in SSW 3.0 mph 7.0 mph 61% 0.00 in CLR
18:10 38.0 °F 26.1 °F 30.36 in SSW 2.0 mph 6.0 mph 62% 0.00 in CLR
18:20 37.7 °F 25.9 °F 30.36 in SSW 2.0 mph 6.0 mph 62% 0.00 in CLR
18:30 37.5 °F 26.0 °F 30.35 in SW 1.0 mph 8.0 mph 63% 0.00 in CLR
18:40 37.4 °F 26.3 °F 30.36 in SSW 5.0 mph 9.0 mph 64% 0.00 in CLR
18:50 37.4 °F 26.3 °F 30.36 in SSW 3.0 mph 10.0 mph 64% 0.00 in CLR
19:00 37.1 °F 26.4 °F 30.36 in SW 2.0 mph 7.0 mph 65% 0.00 in CLR
19:10 37.0 °F 25.9 °F 30.36 in SSW 1.0 mph 6.0 mph 64% 0.00 in CLR
19:20 36.9 °F 25.8 °F 30.36 in SSW 1.0 mph 5.0 mph 64% 0.00 in CLR
19:30 36.7 °F 25.6 °F 30.36 in South 1.0 mph 4.0 mph 64% 0.00 in CLR
19:40 36.5 °F 25.5 °F 30.36 in Calm   3.0 mph 64% 0.00 in CLR
19:50 36.3 °F 25.7 °F 30.36 in SSE 1.0 mph 3.0 mph 65% 0.00 in CLR
20:10 36.9 °F 25.9 °F 30.36 in Calm   3.0 mph 64% 0.00 in CLR
20:20 36.9 °F 26.2 °F 30.35 in Calm   2.0 mph 65% 0.00 in CLR
20:30 36.9 °F 26.2 °F 30.35 in SW 1.0 mph 2.0 mph 65% 0.00 in CLR
20:40 37.0 °F 26.7 °F 30.35 in SSW 1.0 mph 4.0 mph 66% 0.00 in CLR
20:50 37.0 °F 26.7 °F 30.35 in SSW 2.0 mph 5.0 mph 66% 0.00 in CLR
21:00 37.2 °F 26.9 °F 30.35 in SSW 1.0 mph 5.0 mph 66% 0.00 in CLR
21:10 37.4 °F 26.7 °F 30.35 in SSW 1.0 mph 4.0 mph 65% 0.00 in BKN
21:20 37.5 °F 26.8 °F 30.34 in South 1.0 mph 3.0 mph 65% 0.00 in BKN
21:30 37.5 °F 26.8 °F 30.35 in SW 2.0 mph 5.0 mph 65% 0.00 in BKN
21:40 37.6 °F 26.9 °F 30.34 in SSW 1.0 mph 4.0 mph 65% 0.00 in BKN
21:50 37.5 °F 26.8 °F 30.34 in SW 1.0 mph 3.0 mph 65% 0.00 in BKN
22:00 37.5 °F 26.8 °F 30.34 in Calm   3.0 mph 65% 0.00 in BKN
22:10 37.5 °F 26.8 °F 30.34 in SW 1.0 mph 3.0 mph 65% 0.00 in BKN
22:20 37.5 °F 26.8 °F 30.33 in SW 1.0 mph 4.0 mph 65% 0.00 in BKN
22:30 37.5 °F 26.8 °F 30.33 in SSW 1.0 mph 4.0 mph 65% 0.00 in BKN
22:40 37.5 °F 26.8 °F 30.32 in SW 1.0 mph 5.0 mph 65% 0.00 in BKN
22:50 37.5 °F 26.8 °F 30.32 in Calm   4.0 mph 65% 0.00 in BKN
23:00 37.6 °F 26.9 °F 30.32 in SSW 1.0 mph 6.0 mph 65% 0.00 in BKN
23:10 37.5 °F 26.8 °F 30.32 in SW 3.0 mph 6.0 mph 65% 0.00 in BKN
23:20 37.6 °F 26.9 °F 30.31 in South 3.0 mph 6.0 mph 65% 0.00 in BKN
23:30 37.7 °F 27.0 °F 30.31 in SW 1.0 mph 6.0 mph 65% 0.00 in BKN
23:40 37.7 °F 27.0 °F 30.30 in SSW 1.0 mph 5.0 mph 65% 0.00 in BKN
23:50 37.8 °F 27.1 °F 30.30 in SW 2.0 mph 6.0 mph 65% 0.00 in BKN
TarryTown NY Weather
Compliments of Weather Underground - 1.5 mb